Time;durP1;ratioP1;P1;durP2;ratioP2;P2;SDS_P1;SDS_P2;PMS_P1;PMS_P2;Temp;Humidity;BMP_temperature;BMP_pressure;BME280_temperature;BME280_humidity;BME280_pressure;Samples;Min_cycle;Max_cycle;Signal;HPM_P1;HPM_P2
2022/12/09 00:00:47;;;;;;;14.70;6.33;;;0.80;99.90;;;;;;4221683;28;20459;-77
2022/12/09 00:02:49;;;;;;;14.47;6.80;;;0.80;99.90;;;;;;4221319;28;20930;-77
2022/12/09 00:04:51;;;;;;;15.17;6.43;;;0.80;99.90;;;;;;4220453;28;20900;-78
2022/12/09 00:06:53;;;;;;;15.80;6.60;;;0.80;99.90;;;;;;4217492;28;21097;-77
2022/12/09 00:08:57;;;;;;;14.90;6.10;;;0.80;99.90;;;;;;4223159;28;20460;-78
2022/12/09 00:11:00;;;;;;;12.63;6.00;;;0.80;99.90;;;;;;4222745;28;20455;-77
2022/12/09 00:13:02;;;;;;;14.13;5.57;;;0.80;99.90;;;;;;4223873;28;20477;-77
2022/12/09 00:15:04;;;;;;;16.07;6.37;;;0.80;99.90;;;;;;4227146;28;20473;-77
2022/12/09 00:17:06;;;;;;;13.27;6.10;;;0.80;99.90;;;;;;4228166;28;20463;-77
2022/12/09 00:19:08;;;;;;;13.03;6.00;;;0.80;99.90;;;;;;4219372;28;20481;-77
2022/12/09 00:21:17;;;;;;;12.20;5.57;;;1.20;99.90;;;;;;4220427;28;20465;-77
2022/12/09 00:23:19;;;;;;;13.37;5.80;;;0.80;99.90;;;;;;4224714;28;20506;-77
2022/12/09 00:25:22;;;;;;;15.17;6.73;;;0.80;99.90;;;;;;4218605;28;20486;-77
2022/12/09 00:27:24;;;;;;;16.97;7.00;;;0.80;99.90;;;;;;4217029;28;20486;-78
2022/12/09 00:29:26;;;;;;;14.67;6.93;;;0.80;99.90;;;;;;4216865;28;20457;-77
2022/12/09 00:31:31;;;;;;;16.37;7.27;;;0.80;99.90;;;;;;4225380;28;20480;-77
2022/12/09 00:33:34;;;;;;;16.50;7.07;;;0.80;99.90;;;;;;4217909;28;20486;-77
2022/12/09 00:35:36;;;;;;;18.30;7.20;;;0.80;99.90;;;;;;4224533;28;20476;-77
2022/12/09 00:37:38;;;;;;;20.43;7.80;;;0.80;99.90;;;;;;4228096;28;20453;-77
2022/12/09 00:39:40;;;;;;;17.07;7.07;;;0.80;99.90;;;;;;4219000;28;20457;-78
2022/12/09 00:41:43;;;;;;;15.40;7.03;;;0.80;99.90;;;;;;4226149;28;20457;-77
2022/12/09 00:43:45;;;;;;;15.57;6.63;;;0.80;99.90;;;;;;4222426;28;20445;-77
2022/12/09 00:45:47;;;;;;;15.13;6.83;;;0.80;99.90;;;;;;4225314;28;20932;-77
2022/12/09 00:47:49;;;;;;;17.03;6.87;;;0.80;99.90;;;;;;4217891;28;20557;-77
2022/12/09 00:49:51;;;;;;;14.53;6.40;;;0.90;99.90;;;;;;4219156;28;20869;-77
2022/12/09 00:51:53;;;;;;;12.47;6.00;;;0.80;99.90;;;;;;4225745;28;20459;-77
2022/12/09 00:53:55;;;;;;;12.90;5.80;;;0.80;99.90;;;;;;4225024;28;20442;-77
2022/12/09 00:55:57;;;;;;;10.23;4.97;;;0.90;99.90;;;;;;4226533;28;20497;-77
2022/12/09 00:58:01;;;;;;;11.07;5.30;;;0.90;99.90;;;;;;4216276;28;20446;-77
2022/12/09 01:00:04;;;;;;;10.97;5.20;;;0.80;99.90;;;;;;4220127;28;20450;-77
2022/12/09 01:02:06;;;;;;;10.53;5.10;;;0.80;99.90;;;;;;4225837;28;20446;-78
2022/12/09 01:04:08;;;;;;;11.07;4.50;;;0.80;99.90;;;;;;4218677;28;20454;-77
2022/12/09 01:06:13;;;;;;;10.50;4.67;;;0.80;99.90;;;;;;4215044;28;21101;-77
2022/12/09 01:08:16;;;;;;;11.73;5.50;;;0.80;99.90;;;;;;4217822;28;20534;-77
2022/12/09 01:10:18;;;;;;;15.30;6.13;;;0.80;99.90;;;;;;4216094;28;20485;-77
2022/12/09 01:12:22;;;;;;;14.30;6.00;;;0.90;99.90;;;;;;4220671;28;20481;-78
2022/12/09 01:14:25;;;;;;;14.60;6.30;;;0.90;99.90;;;;;;4214838;28;20447;-77
2022/12/09 01:16:29;;;;;;;16.57;6.70;;;0.90;99.90;;;;;;4215015;28;20458;-77
2022/12/09 01:18:31;;;;;;;18.93;7.17;;;0.90;99.90;;;;;;4216051;28;20534;-77
2022/12/09 01:20:34;;;;;;;14.23;5.97;;;0.90;99.90;;;;;;4220013;28;20928;-78
2022/12/09 01:22:36;;;;;;;13.87;6.43;;;0.90;99.90;;;;;;4212620;28;20449;-78
2022/12/09 01:24:41;;;;;;;17.57;7.67;;;1.00;99.90;;;;;;4224594;28;20472;-77
2022/12/09 01:26:43;;;;;;;16.63;7.20;;;0.90;99.90;;;;;;4225832;28;20493;-77
2022/12/09 01:28:45;;;;;;;18.20;7.20;;;0.90;99.90;;;;;;4225497;28;20459;-78
2022/12/09 01:30:48;;;;;;;16.37;7.00;;;0.90;99.90;;;;;;4218205;28;20457;-78
2022/12/09 01:32:50;;;;;;;15.03;7.30;;;0.90;99.90;;;;;;4211195;28;20477;-78
2022/12/09 01:34:55;;;;;;;17.23;7.43;;;0.90;99.90;;;;;;4223600;28;20562;-78
2022/12/09 01:36:57;;;;;;;18.03;7.97;;;0.90;99.90;;;;;;4219292;28;20461;-78
2022/12/09 01:38:59;;;;;;;20.23;8.67;;;0.90;99.90;;;;;;4216645;28;20549;-78
2022/12/09 01:41:02;;;;;;;22.83;8.93;;;0.90;99.90;;;;;;4217072;28;20554;-78
2022/12/09 01:43:03;;;;;;;19.30;8.17;;;0.90;99.90;;;;;;4216209;28;20484;-78
2022/12/09 01:45:38;;;;;;;17.30;7.80;;;0.90;99.90;;;;;;4220383;28;20924;-78
2022/12/09 01:47:41;;;;;;;17.70;7.67;;;0.90;99.90;;;;;;4219811;28;20461;-78
2022/12/09 01:49:46;;;;;;;17.47;7.47;;;0.90;99.90;;;;;;4230478;28;20544;-79
2022/12/09 01:51:56;;;;;;;17.53;7.60;;;0.90;99.90;;;;;;4227346;28;20833;-78
2022/12/09 01:53:58;;;;;;;15.57;7.20;;;0.80;99.90;;;;;;4222570;28;20579;-78
2022/12/09 01:56:05;;;;;;;15.40;6.70;;;0.90;99.90;;;;;;4221781;28;20484;-78
2022/12/09 01:58:07;;;;;;;18.23;7.60;;;0.90;99.90;;;;;;4223518;28;20908;-78
2022/12/09 02:00:10;;;;;;;16.97;7.43;;;0.90;99.90;;;;;;4224950;28;20556;-78
2022/12/09 02:02:16;;;;;;;19.43;7.50;;;0.90;99.90;;;;;;4220301;28;20504;-78
2022/12/09 02:04:19;;;;;;;19.30;7.47;;;0.90;99.90;;;;;;4227332;28;20954;-78
2022/12/09 02:06:21;;;;;;;20.47;7.93;;;0.90;99.90;;;;;;4222889;28;20496;-78
2022/12/09 02:08:23;;;;;;;19.33;7.43;;;1.30;99.90;;;;;;4229142;28;20878;-78
2022/12/09 02:10:27;;;;;;;19.77;7.87;;;0.90;99.90;;;;;;4218462;28;20450;-78
2022/12/09 02:12:36;;;;;;;20.77;8.47;;;0.90;99.90;;;;;;4221248;28;20477;-78
2022/12/09 02:14:42;;;;;;;16.77;6.73;;;0.90;99.90;;;;;;4221550;28;20530;-78
2022/12/09 02:16:52;;;;;;;18.73;7.33;;;0.90;99.90;;;;;;4227013;28;20542;-78
2022/12/09 02:18:59;;;;;;;19.27;7.60;;;0.90;99.90;;;;;;4220389;28;20557;-78
2022/12/09 02:21:09;;;;;;;19.53;7.63;;;0.90;99.90;;;;;;4218150;28;20908;-78
2022/12/09 02:23:17;;;;;;;16.80;7.33;;;1.00;99.90;;;;;;4222637;28;20449;-78
2022/12/09 02:25:28;;;;;;;18.40;7.60;;;0.90;99.90;;;;;;4221358;28;20919;-78
2022/12/09 02:27:36;;;;;;;18.23;7.80;;;0.80;99.90;;;;;;4221353;28;20553;-78
2022/12/09 02:30:01;;;;;;;18.23;7.40;;;0.90;99.90;;;;;;4225464;28;20497;-78
2022/12/09 02:32:26;;;;;;;18.60;8.00;;;0.90;99.90;;;;;;4215708;28;20553;-78
2022/12/09 02:34:34;;;;;;;18.57;7.97;;;0.90;99.90;;;;;;4219464;28;20995;-78
2022/12/09 02:36:44;;;;;;;21.20;8.13;;;0.90;99.90;;;;;;4217079;28;20513;-78
2022/12/09 02:38:48;;;;;;;20.63;8.73;;;0.90;99.90;;;;;;4218057;28;20483;-78
2022/12/09 02:40:53;;;;;;;22.60;8.77;;;0.90;99.90;;;;;;4222960;28;20501;-78
2022/12/09 02:42:58;;;;;;;20.00;9.03;;;0.90;99.90;;;;;;4226889;28;20459;-78
2022/12/09 02:45:03;;;;;;;22.20;8.87;;;0.90;99.90;;;;;;4223371;28;20472;-78
2022/12/09 02:47:08;;;;;;;21.23;8.67;;;0.90;99.90;;;;;;4225521;28;20559;-78
2022/12/09 02:49:11;;;;;;;21.30;8.13;;;0.90;99.90;;;;;;4229691;28;21016;-78
2022/12/09 02:51:18;;;;;;;21.50;8.63;;;0.90;99.90;;;;;;4215856;28;20494;-78
2022/12/09 02:53:22;;;;;;;18.77;8.23;;;0.90;99.90;;;;;;4227770;28;20507;-78
2022/12/09 02:55:25;;;;;;;16.47;7.13;;;0.90;99.90;;;;;;4220295;28;20488;-78
2022/12/09 02:57:30;;;;;;;17.07;7.40;;;0.90;99.90;;;;;;4219133;28;20507;-78
2022/12/09 02:59:32;;;;;;;17.53;7.47;;;0.90;99.90;;;;;;4221230;28;20477;-78
2022/12/09 03:01:37;;;;;;;19.63;7.77;;;1.00;99.90;;;;;;4217852;28;20498;-79
2022/12/09 03:03:39;;;;;;;19.67;7.83;;;1.00;99.90;;;;;;4221649;28;20477;-78
2022/12/09 03:05:48;;;;;;;17.07;7.53;;;1.00;99.90;;;;;;4224167;28;20488;-79
2022/12/09 03:08:08;;;;;;;18.47;7.33;;;1.00;99.90;;;;;;4218379;28;20446;-78
2022/12/09 03:10:16;;;;;;;18.10;7.20;;;1.00;99.90;;;;;;4217157;28;20469;-78
2022/12/09 03:12:20;;;;;;;20.97;8.30;;;1.00;99.90;;;;;;4224778;28;20480;-78
2022/12/09 03:14:28;;;;;;;16.07;7.37;;;1.00;99.90;;;;;;4221711;28;20538;-78
2022/12/09 03:16:35;;;;;;;17.60;7.57;;;1.00;99.90;;;;;;4221741;28;20465;-78
2022/12/09 03:18:41;;;;;;;22.23;8.43;;;1.00;99.90;;;;;;4221594;28;20508;-78
2022/12/09 03:20:45;;;;;;;19.10;7.63;;;1.00;99.90;;;;;;4219037;28;20476;-78
2022/12/09 03:22:48;;;;;;;23.90;9.07;;;1.00;99.90;;;;;;4219144;28;20464;-78
2022/12/09 03:24:55;;;;;;;22.23;8.77;;;1.00;99.90;;;;;;4220071;28;20490;-79
2022/12/09 03:26:59;;;;;;;21.40;8.27;;;1.00;99.90;;;;;;4225350;28;20445;-78
2022/12/09 03:29:06;;;;;;;19.53;8.57;;;1.00;99.90;;;;;;4220549;28;20457;-79
2022/12/09 03:31:13;;;;;;;20.27;9.03;;;1.00;99.90;;;;;;4224195;28;20455;-78
2022/12/09 03:33:18;;;;;;;24.63;9.83;;;1.10;99.90;;;;;;4224863;28;20483;-79
2022/12/09 03:35:24;;;;;;;19.73;8.47;;;1.10;99.90;;;;;;4222480;28;21067;-78
2022/12/09 03:37:27;;;;;;;20.73;8.23;;;1.10;99.90;;;;;;4230805;28;20547;-78
2022/12/09 03:39:34;;;;;;;23.13;9.83;;;1.10;99.90;;;;;;4221733;28;20446;-78
2022/12/09 03:41:41;;;;;;;22.23;8.73;;;1.10;99.90;;;;;;4219464;28;20493;-78
2022/12/09 03:43:50;;;;;;;28.80;10.80;;;1.10;99.90;;;;;;4221212;28;20453;-78
2022/12/09 03:45:54;;;;;;;26.73;10.30;;;1.10;99.90;;;;;;4226446;28;20473;-78
2022/12/09 03:47:56;;;;;;;21.67;9.27;;;1.20;99.90;;;;;;4224994;28;20464;-78
2022/12/09 03:49:58;;;;;;;25.00;9.80;;;1.10;99.90;;;;;;4212858;28;20470;-78
2022/12/09 03:52:07;;;;;;;24.63;9.37;;;1.10;99.90;;;;;;4215880;28;20460;-78
2022/12/09 03:54:16;;;;;;;21.87;8.50;;;1.30;99.90;;;;;;4222817;28;20473;-78
2022/12/09 03:56:22;;;;;;;23.70;9.70;;;1.10;99.90;;;;;;4219843;28;20499;-78
2022/12/09 03:58:27;;;;;;;23.90;8.70;;;1.10;99.90;;;;;;4222131;28;20943;-78
2022/12/09 04:00:30;;;;;;;23.23;9.03;;;1.20;99.90;;;;;;4221978;28;20664;-78
2022/12/09 04:02:32;;;;;;;25.77;9.40;;;1.20;99.90;;;;;;4222518;28;20503;-78
2022/12/09 04:04:35;;;;;;;23.53;9.10;;;1.10;99.90;;;;;;4222509;28;20473;-78
2022/12/09 04:06:37;;;;;;;24.27;9.20;;;1.10;99.90;;;;;;4227893;28;20907;-78
2022/12/09 04:08:39;;;;;;;23.87;10.00;;;1.20;99.90;;;;;;4221952;28;20991;-78
2022/12/09 04:10:41;;;;;;;27.13;9.23;;;1.20;99.90;;;;;;4212476;28;20461;-78
2022/12/09 04:12:43;;;;;;;21.10;9.53;;;1.20;99.90;;;;;;4223141;28;20481;-79
2022/12/09 04:14:46;;;;;;;20.17;8.43;;;1.20;99.90;;;;;;4216684;28;20984;-78
2022/12/09 04:16:48;;;;;;;22.33;8.80;;;1.20;99.90;;;;;;4219546;28;20453;-79
2022/12/09 04:18:50;;;;;;;19.60;8.67;;;1.20;99.90;;;;;;4216011;28;20449;-78
2022/12/09 04:20:52;;;;;;;22.43;8.27;;;1.20;99.90;;;;;;4224305;28;20446;-78
2022/12/09 04:22:56;;;;;;;23.73;9.17;;;1.30;99.90;;;;;;4216548;28;20521;-78
2022/12/09 04:24:58;;;;;;;23.33;8.97;;;1.20;99.90;;;;;;4220302;28;20471;-78
2022/12/09 04:27:00;;;;;;;23.03;8.20;;;1.20;99.90;;;;;;4219118;28;20455;-78
2022/12/09 04:29:02;;;;;;;22.00;8.23;;;1.20;99.90;;;;;;4218856;28;20468;-79
2022/12/09 04:31:06;;;;;;;26.07;9.37;;;1.40;99.90;;;;;;4225190;28;20466;-78
2022/12/09 04:33:08;;;;;;;18.53;7.73;;;1.20;99.90;;;;;;4220132;28;20444;-78
2022/12/09 04:35:10;;;;;;;21.37;8.70;;;1.20;99.90;;;;;;4217728;28;21097;-79
2022/12/09 04:37:14;;;;;;;18.33;7.40;;;1.20;99.90;;;;;;4219075;28;20454;-78
2022/12/09 04:39:16;;;;;;;20.43;8.07;;;1.20;99.90;;;;;;4216977;28;20454;-78
2022/12/09 04:41:18;;;;;;;20.80;8.13;;;1.20;99.90;;;;;;4216182;28;20459;-78
2022/12/09 04:43:20;;;;;;;22.47;8.87;;;1.20;99.90;;;;;;4220840;28;20466;-78
2022/12/09 04:45:22;;;;;;;20.93;7.97;;;1.20;99.90;;;;;;4220646;28;20478;-78
2022/12/09 04:47:25;;;;;;;23.97;9.07;;;1.50;99.90;;;;;;4218701;28;20454;-78
2022/12/09 04:49:27;;;;;;;24.63;9.07;;;1.20;99.90;;;;;;4219771;28;21002;-78
2022/12/09 04:51:29;;;;;;;18.60;7.23;;;1.20;99.90;;;;;;4219733;28;20817;-78
2022/12/09 04:53:31;;;;;;;20.80;7.90;;;1.20;99.90;;;;;;4222245;28;21293;-78
2022/12/09 04:55:33;;;;;;;19.20;8.20;;;1.20;99.90;;;;;;4224520;28;20531;-78
2022/12/09 04:57:35;;;;;;;19.40;7.57;;;1.20;99.90;;;;;;4217618;28;20962;-78
2022/12/09 04:59:37;;;;;;;22.77;9.17;;;1.20;99.90;;;;;;4221930;28;21208;-78
2022/12/09 05:01:39;;;;;;;24.03;9.33;;;1.20;99.90;;;;;;4224062;28;20445;-78
2022/12/09 05:03:44;;;;;;;24.93;9.37;;;1.10;99.90;;;;;;4216150;28;20445;-78
2022/12/09 05:05:46;;;;;;;23.23;8.17;;;0.80;99.90;;;;;;4217905;28;20492;-78
2022/12/09 05:07:49;;;;;;;26.40;9.80;;;1.10;99.90;;;;;;4222240;28;20822;-78
2022/12/09 05:09:51;;;;;;;24.77;8.90;;;1.10;99.90;;;;;;4220567;28;20465;-78
2022/12/09 05:11:53;;;;;;;25.80;9.20;;;1.10;99.90;;;;;;4220733;28;20456;-78
2022/12/09 05:13:55;;;;;;;24.57;9.53;;;1.00;99.90;;;;;;4225307;28;20475;-78
2022/12/09 05:16:00;;;;;;;24.43;7.97;;;1.00;99.90;;;;;;4220956;28;20466;-78
2022/12/09 05:18:02;;;;;;;23.60;9.30;;;1.00;99.90;;;;;;4218883;28;20608;-78
2022/12/09 05:20:07;;;;;;;22.53;8.67;;;1.20;99.90;;;;;;4218652;28;21033;-78
2022/12/09 05:22:09;;;;;;;23.20;8.77;;;1.00;99.90;;;;;;4221946;28;20454;-78
2022/12/09 05:24:11;;;;;;;21.57;8.17;;;1.30;99.90;;;;;;4229610;28;20449;-78
2022/12/09 05:26:19;;;;;;;23.87;9.13;;;0.90;99.90;;;;;;4217908;28;20982;-78
2022/12/09 05:28:21;;;;;;;25.90;9.63;;;0.90;99.90;;;;;;4219946;28;20453;-78
2022/12/09 05:30:23;;;;;;;26.80;8.40;;;0.90;99.90;;;;;;4217772;28;20450;-78
2022/12/09 05:32:27;;;;;;;24.70;8.67;;;0.90;99.90;;;;;;4219408;28;20488;-78
2022/12/09 05:34:30;;;;;;;22.90;8.60;;;0.90;99.90;;;;;;4214215;28;21542;-78
2022/12/09 05:36:33;;;;;;;23.20;8.27;;;1.10;99.90;;;;;;4216372;28;20451;-78
2022/12/09 05:38:35;;;;;;;23.17;8.73;;;0.90;99.90;;;;;;4218218;28;20482;-78
2022/12/09 05:40:37;;;;;;;26.80;9.27;;;0.90;99.90;;;;;;4224529;28;20526;-78
2022/12/09 05:42:39;;;;;;;25.00;8.67;;;0.90;99.90;;;;;;4222735;28;20533;-78
2022/12/09 05:44:41;;;;;;;24.20;8.57;;;0.90;99.90;;;;;;4216724;28;20509;-78
2022/12/09 05:46:43;;;;;;;28.67;10.07;;;0.90;99.90;;;;;;4217454;28;20454;-78
2022/12/09 05:48:45;;;;;;;31.00;10.90;;;0.90;99.90;;;;;;4219941;28;20460;-78
2022/12/09 05:50:56;;;;;;;31.10;10.03;;;0.90;99.90;;;;;;4226812;28;20948;-78
2022/12/09 05:52:59;;;;;;;29.37;9.70;;;0.90;99.90;;;;;;4216332;28;20464;-78
2022/12/09 05:55:03;;;;;;;28.50;10.47;;;0.90;99.90;;;;;;4215582;28;21266;-78
2022/12/09 05:57:05;;;;;;;29.23;9.93;;;0.90;99.90;;;;;;4219093;28;20943;-78
2022/12/09 05:59:10;;;;;;;29.27;9.33;;;0.90;99.90;;;;;;4225112;28;20452;-78
2022/12/09 06:01:12;;;;;;;37.47;10.30;;;0.90;99.90;;;;;;4219530;28;20447;-78
2022/12/09 06:03:15;;;;;;;29.60;9.33;;;0.90;99.90;;;;;;4218502;28;21206;-78
2022/12/09 06:05:17;;;;;;;26.27;9.57;;;0.90;99.90;;;;;;4221507;28;21080;-78
2022/12/09 06:07:19;;;;;;;25.87;9.63;;;1.00;99.90;;;;;;4219180;28;20772;-78
2022/12/09 06:09:22;;;;;;;26.17;9.30;;;0.90;99.90;;;;;;4219165;28;20444;-77
2022/12/09 06:11:24;;;;;;;25.87;9.33;;;1.00;99.90;;;;;;4217302;28;20460;-77
2022/12/09 06:13:26;;;;;;;26.57;8.80;;;0.90;99.90;;;;;;4215106;28;20454;-78
2022/12/09 06:15:29;;;;;;;24.40;9.43;;;1.10;99.90;;;;;;4220053;28;20572;-78
2022/12/09 06:17:31;;;;;;;28.13;9.73;;;1.00;99.90;;;;;;4218050;28;20446;-78
2022/12/09 06:19:33;;;;;;;31.53;11.03;;;1.00;99.90;;;;;;4222852;28;20453;-78
2022/12/09 06:21:38;;;;;;;30.20;10.30;;;1.00;99.90;;;;;;4219441;28;20957;-78
2022/12/09 06:23:42;;;;;;;24.03;9.80;;;1.00;99.90;;;;;;4211428;28;20509;-78
2022/12/09 06:25:45;;;;;;;31.50;11.10;;;1.00;99.90;;;;;;4220258;28;20469;-78
2022/12/09 06:27:47;;;;;;;29.33;9.50;;;1.10;99.90;;;;;;4217314;28;20872;-78
2022/12/09 06:29:49;;;;;;;24.33;8.70;;;1.00;99.90;;;;;;4215480;28;20454;-77
2022/12/09 06:31:51;;;;;;;29.23;9.40;;;1.00;99.90;;;;;;4213565;28;20527;-78
2022/12/09 06:33:53;;;;;;;32.77;10.40;;;1.00;99.90;;;;;;4216550;28;20471;-78
2022/12/09 06:36:00;;;;;;;33.83;10.13;;;1.00;99.90;;;;;;4225111;27;20564;-77
2022/12/09 06:38:02;;;;;;;29.00;10.07;;;1.10;99.90;;;;;;4225573;28;20785;-78
2022/12/09 06:40:06;;;;;;;30.03;9.47;;;1.00;99.90;;;;;;4219628;28;21024;-78
2022/12/09 06:42:09;;;;;;;29.67;9.90;;;1.10;99.90;;;;;;4222113;27;20818;-77
2022/12/09 06:44:12;;;;;;;25.10;9.00;;;1.10;99.90;;;;;;4217799;28;20457;-77
2022/12/09 06:46:15;;;;;;;26.83;8.47;;;1.10;99.90;;;;;;4218670;28;20503;-77
2022/12/09 06:48:17;;;;;;;25.90;9.30;;;1.10;99.90;;;;;;4222111;27;20457;-77
2022/12/09 06:50:19;;;;;;;27.43;9.60;;;1.10;99.90;;;;;;4218491;28;21031;-77
2022/12/09 06:52:21;;;;;;;22.00;8.30;;;1.10;99.90;;;;;;4219319;28;20519;-77
2022/12/09 06:54:23;;;;;;;23.77;9.03;;;1.10;99.90;;;;;;4219251;28;20478;-77
2022/12/09 06:56:26;;;;;;;24.83;8.87;;;1.10;99.90;;;;;;4218397;28;20460;-77
2022/12/09 06:58:29;;;;;;;20.97;7.77;;;1.10;99.90;;;;;;4223199;28;20449;-77
2022/12/09 07:00:32;;;;;;;25.97;8.80;;;1.20;99.90;;;;;;4221329;28;20481;-77
2022/12/09 07:02:34;;;;;;;25.03;8.63;;;1.10;99.90;;;;;;4215358;28;20494;-79
2022/12/09 07:04:36;;;;;;;22.43;8.07;;;1.10;99.90;;;;;;4216728;28;20504;-78
2022/12/09 07:06:40;;;;;;;22.57;8.67;;;1.10;99.90;;;;;;4217784;28;21040;-78
2022/12/09 07:08:42;;;;;;;22.50;8.73;;;1.40;99.90;;;;;;4221491;28;20946;-78
2022/12/09 07:10:44;;;;;;;26.17;9.07;;;1.10;99.90;;;;;;4217488;28;20466;-78
2022/12/09 07:12:46;;;;;;;27.00;9.23;;;1.20;99.90;;;;;;4217517;28;20447;-78
2022/12/09 07:14:49;;;;;;;26.57;9.00;;;1.10;99.90;;;;;;4216785;28;20489;-78
2022/12/09 07:16:54;;;;;;;32.37;10.67;;;1.20;99.90;;;;;;4221281;28;20464;-78
2022/12/09 07:18:56;;;;;;;34.27;10.13;;;1.20;99.90;;;;;;4222260;28;20511;-79
2022/12/09 07:20:58;;;;;;;30.43;10.13;;;1.30;99.90;;;;;;4220368;28;20514;-79
2022/12/09 07:23:00;;;;;;;28.20;9.93;;;1.20;99.90;;;;;;4216080;28;20455;-79
2022/12/09 07:25:02;;;;;;;28.70;9.77;;;1.20;99.90;;;;;;4223071;28;20850;-79
2022/12/09 07:27:04;;;;;;;27.63;9.97;;;1.20;99.90;;;;;;4223206;28;20469;-79
2022/12/09 07:29:07;;;;;;;27.37;9.70;;;1.20;99.90;;;;;;4216821;28;20923;-79
2022/12/09 07:31:19;;;;;;;26.83;9.20;;;1.20;99.90;;;;;;4221674;28;20454;-79
2022/12/09 07:33:21;;;;;;;25.77;9.83;;;1.20;99.90;;;;;;4220303;28;20463;-79
2022/12/09 07:35:23;;;;;;;27.53;9.30;;;1.30;99.90;;;;;;4221687;28;20489;-79
2022/12/09 07:37:25;;;;;;;29.13;9.77;;;1.20;99.90;;;;;;4223702;28;20443;-79
2022/12/09 07:39:27;;;;;;;30.17;9.83;;;1.30;99.90;;;;;;4218449;28;20820;-79
2022/12/09 07:41:30;;;;;;;22.33;9.27;;;1.30;99.90;;;;;;4223194;28;20472;-79
2022/12/09 07:43:33;;;;;;;21.70;8.20;;;1.30;99.90;;;;;;4218353;28;20860;-79
2022/12/09 07:45:35;;;;;;;25.33;8.33;;;1.30;99.90;;;;;;4223454;28;20570;-78
2022/12/09 07:47:38;;;;;;;24.83;8.80;;;1.40;99.90;;;;;;4226189;28;20462;-79
2022/12/09 07:49:40;;;;;;;27.60;8.87;;;1.30;99.90;;;;;;4217339;28;20518;-79
2022/12/09 07:51:42;;;;;;;25.07;8.37;;;1.50;99.90;;;;;;4225458;27;20868;-78
2022/12/09 07:53:45;;;;;;;25.67;9.20;;;1.30;99.90;;;;;;4220354;28;20488;-78
2022/12/09 07:55:47;;;;;;;23.17;8.23;;;1.30;99.90;;;;;;4214935;28;21010;-79
2022/12/09 07:57:49;;;;;;;27.90;10.27;;;0.80;99.90;;;;;;4223955;27;20499;-79
2022/12/09 07:59:52;;;;;;;27.73;9.93;;;1.70;99.90;;;;;;4220669;28;20451;-79
2022/12/09 08:01:54;;;;;;;26.43;10.50;;;1.40;99.90;;;;;;4217923;28;20625;-78
2022/12/09 08:04:00;;;;;;;29.70;11.47;;;1.80;99.90;;;;;;4218898;28;20559;-80
2022/12/09 08:06:02;;;;;;;29.30;10.33;;;1.50;99.90;;;;;;4215356;28;20473;-78
2022/12/09 08:08:04;;;;;;;28.20;10.20;;;1.40;99.90;;;;;;4223059;27;20473;-80
2022/12/09 08:10:07;;;;;;;25.53;9.70;;;1.40;99.90;;;;;;4227677;28;20450;-80
2022/12/09 08:12:11;;;;;;;27.07;9.90;;;1.40;99.90;;;;;;4223061;27;20490;-79
2022/12/09 08:14:14;;;;;;;24.90;10.00;;;1.40;99.90;;;;;;4225903;27;20469;-80
2022/12/09 08:16:18;;;;;;;24.87;8.57;;;1.60;99.90;;;;;;4230295;28;20446;-79
2022/12/09 08:18:20;;;;;;;28.67;10.37;;;1.50;99.90;;;;;;4222683;28;20472;-79
2022/12/09 08:20:23;;;;;;;31.23;9.90;;;1.40;99.90;;;;;;4218968;28;20462;-79
2022/12/09 08:22:25;;;;;;;27.00;10.10;;;1.50;99.90;;;;;;4219119;28;20482;-79
2022/12/09 08:24:27;;;;;;;31.47;11.13;;;1.50;99.90;;;;;;4218145;28;20453;-79
2022/12/09 08:26:31;;;;;;;25.33;9.57;;;1.50;99.90;;;;;;4220448;28;20452;-79
2022/12/09 08:28:34;;;;;;;32.27;11.50;;;1.50;99.90;;;;;;4215651;28;20454;-79
2022/12/09 08:30:37;;;;;;;26.77;10.20;;;1.50;99.90;;;;;;4214095;28;20450;-79
2022/12/09 08:32:38;;;;;;;32.83;9.93;;;1.50;99.90;;;;;;4220304;27;20705;-79
2022/12/09 08:34:40;;;;;;;26.73;10.07;;;2.00;99.90;;;;;;4223824;28;20891;-79
2022/12/09 08:36:44;;;;;;;32.13;11.03;;;1.60;99.90;;;;;;4219270;28;20549;-79
2022/12/09 08:38:49;;;;;;;31.20;11.33;;;1.60;99.90;;;;;;4220314;28;20443;-78
2022/12/09 08:40:51;;;;;;;36.80;12.93;;;1.60;99.90;;;;;;4220069;28;20453;-79
2022/12/09 08:45:39;;;;;;;29.67;9.83;;;1.60;99.90;;;;;;4221689;28;20817;-80
2022/12/09 08:47:41;;;;;;;28.80;11.03;;;1.70;99.90;;;;;;4223840;28;20792;-79
2022/12/09 08:49:43;;;;;;;29.37;10.03;;;1.70;99.90;;;;;;4227302;28;20450;-79
2022/12/09 08:51:47;;;;;;;29.90;10.77;;;1.70;99.90;;;;;;4222274;28;20504;-79
2022/12/09 08:53:49;;;;;;;31.07;11.13;;;2.50;99.90;;;;;;4223746;28;21134;-80
2022/12/09 08:55:51;;;;;;;26.73;10.50;;;1.70;99.90;;;;;;4226952;28;20481;-79
2022/12/09 08:57:53;;;;;;;33.13;10.90;;;1.70;99.90;;;;;;4225012;28;21124;-79
2022/12/09 08:59:55;;;;;;;26.93;10.73;;;1.70;99.90;;;;;;4224294;27;20462;-79
2022/12/09 09:01:57;;;;;;;27.33;10.50;;;2.30;99.90;;;;;;4230702;28;20454;-79
2022/12/09 09:04:01;;;;;;;28.00;10.57;;;1.80;99.90;;;;;;4224776;28;21140;-79
2022/12/09 09:06:04;;;;;;;25.83;10.57;;;1.90;99.90;;;;;;4226063;28;21319;-79
2022/12/09 09:08:08;;;;;;;27.03;10.20;;;1.90;99.90;;;;;;4220593;28;20454;-79
2022/12/09 09:10:10;;;;;;;25.83;10.07;;;1.90;99.90;;;;;;4219121;28;21026;-79
2022/12/09 09:12:12;;;;;;;28.73;10.67;;;1.90;99.90;;;;;;4222674;28;20453;-80
2022/12/09 09:14:15;;;;;;;26.60;9.93;;;2.10;99.90;;;;;;4225071;28;20454;-80
2022/12/09 09:16:19;;;;;;;22.90;10.03;;;2.10;99.90;;;;;;4223622;28;20486;-79
2022/12/09 09:18:21;;;;;;;26.40;10.80;;;2.40;99.90;;;;;;4226136;28;20477;-80
2022/12/09 09:20:23;;;;;;;27.00;10.67;;;2.00;99.90;;;;;;4226856;28;20508;-79
2022/12/09 09:22:26;;;;;;;32.83;10.97;;;2.30;99.90;;;;;;4227228;28;20960;-79
2022/12/09 09:24:30;;;;;;;27.57;10.70;;;2.10;99.90;;;;;;4224590;28;20469;-79
2022/12/09 09:26:32;;;;;;;29.73;10.10;;;2.10;99.90;;;;;;4224188;28;20451;-80
2022/12/09 09:28:34;;;;;;;27.10;10.30;;;2.10;99.90;;;;;;4220084;27;20983;-81
2022/12/09 09:30:36;;;;;;;27.83;10.97;;;2.10;99.90;;;;;;4220057;28;20971;-79
2022/12/09 09:32:38;;;;;;;23.43;10.57;;;2.20;99.90;;;;;;4223459;28;20458;-80
2022/12/09 09:34:42;;;;;;;23.87;10.00;;;2.20;99.90;;;;;;4220946;28;21004;-82
2022/12/09 09:36:47;;;;;;;30.13;11.10;;;2.20;99.90;;;;;;4217608;28;20441;-78
2022/12/09 09:38:50;;;;;;;28.93;11.23;;;2.90;99.90;;;;;;4221393;28;20454;-79
2022/12/09 09:40:54;;;;;;;29.00;11.57;;;2.30;99.90;;;;;;4226173;28;20466;-80
2022/12/09 09:42:57;;;;;;;28.07;10.53;;;2.30;99.90;;;;;;4219657;28;20458;-78
2022/12/09 09:45:06;;;;;;;26.30;10.97;;;2.30;99.90;;;;;;4218158;28;20554;-79
2022/12/09 09:47:16;;;;;;;25.87;10.70;;;2.40;99.90;;;;;;4219168;28;20475;-77
2022/12/09 09:49:24;;;;;;;23.60;10.77;;;2.40;99.90;;;;;;4217641;28;20548;-78
2022/12/09 09:51:27;;;;;;;27.93;11.17;;;2.40;99.90;;;;;;4218740;28;20462;-77
2022/12/09 09:53:32;;;;;;;33.27;12.67;;;2.40;99.90;;;;;;4217639;28;20454;-78
2022/12/09 09:55:42;;;;;;;33.87;12.87;;;2.30;99.90;;;;;;4218637;28;20487;-78
2022/12/09 09:57:50;;;;;;;27.97;11.80;;;2.40;99.90;;;;;;4221630;28;20453;-79
2022/12/09 10:00:05;;;;;;;33.87;13.37;;;2.40;99.90;;;;;;4222269;28;20446;-79
2022/12/09 10:02:16;;;;;;;33.77;13.53;;;2.40;99.90;;;;;;4217725;28;20447;-79
2022/12/09 10:04:24;;;;;;;26.33;11.90;;;2.50;99.90;;;;;;4218423;28;20466;-79
2022/12/09 10:06:35;;;;;;;29.10;12.30;;;2.50;99.90;;;;;;4218400;28;20485;-79
2022/12/09 10:08:48;;;;;;;32.13;13.03;;;2.50;99.90;;;;;;4215180;28;22184;-79
2022/12/09 10:10:59;;;;;;;30.97;12.77;;;2.60;99.90;;;;;;4223337;28;20455;-79
2022/12/09 10:13:20;;;;;;;30.70;13.33;;;2.70;99.90;;;;;;4221270;28;21144;-79
2022/12/09 10:15:28;;;;;;;27.80;12.17;;;2.70;99.90;;;;;;4222161;27;21027;-80
2022/12/09 10:17:34;;;;;;;33.13;13.03;;;2.80;99.90;;;;;;4225741;28;21341;-79
2022/12/09 10:19:42;;;;;;;34.47;13.07;;;2.80;99.90;;;;;;4224621;28;20541;-80
2022/12/09 10:21:46;;;;;;;29.97;12.37;;;2.80;99.90;;;;;;4220069;28;20487;-79
2022/12/09 10:23:49;;;;;;;40.87;15.10;;;2.80;99.90;;;;;;4218029;28;20486;-79
2022/12/09 10:25:55;;;;;;;34.97;14.30;;;2.80;99.90;;;;;;4221600;28;21308;-79
2022/12/09 10:28:04;;;;;;;34.53;14.17;;;2.90;99.90;;;;;;4229253;28;20477;-80
2022/12/09 10:30:12;;;;;;;34.73;14.20;;;2.90;99.90;;;;;;4220642;27;21376;-79
2022/12/09 10:32:17;;;;;;;36.13;13.93;;;2.90;99.90;;;;;;4219813;27;20896;-79
2022/12/09 10:34:22;;;;;;;30.70;12.87;;;2.90;99.90;;;;;;4219055;28;20454;-79
2022/12/09 10:36:25;;;;;;;33.67;14.00;;;3.00;99.90;;;;;;4216133;28;20931;-79
2022/12/09 10:38:29;;;;;;;33.40;12.80;;;3.00;99.90;;;;;;4221619;28;20915;-79
2022/12/09 10:40:37;;;;;;;33.57;13.10;;;3.00;99.90;;;;;;4217570;28;20442;-79
2022/12/09 10:45:08;;;;;;;31.47;12.37;;;3.00;99.90;;;;;;4218543;28;21481;-79
2022/12/09 10:47:23;;;;;;;29.70;12.53;;;3.00;99.90;;;;;;4220943;28;20477;-78